Time;durP1;ratioP1;P1;durP2;ratioP2;P2;SDS_P1;SDS_P2;PMS_P1;PMS_P2;Temp;Humidity;BMP_temperature;BMP_pressure;BME280_temperature;BME280_humidity;BME280_pressure;Samples;Min_cycle;Max_cycle;Signal;HPM_P1;HPM_P2
2024/01/09 00:00:25;;;;;;;11.07;4.88;;;;;;;-148.68;100.00;62903.81;5116425;28;20076;-90
2024/01/09 00:03:49;;;;;;;11.07;4.78;;;;;;;-148.68;100.00;62903.81;5116256;28;20027;-90
2024/01/09 00:07:21;;;;;;;9.57;4.90;;;;;;;-148.68;100.00;62903.81;5116148;28;20028;-90
2024/01/09 00:10:45;;;;;;;10.60;4.60;;;;;;;-148.68;100.00;62903.81;5116148;28;20102;-89
2024/01/09 00:14:11;;;;;;;10.68;4.85;;;;;;;-148.68;100.00;62903.81;5116566;28;20020;-90
2024/01/09 00:17:35;;;;;;;10.00;4.60;;;;;;;-148.68;100.00;62903.81;5116027;28;20019;-90
2024/01/09 00:20:59;;;;;;;11.75;4.70;;;;;;;-148.68;100.00;62903.81;5115558;28;20019;-89
2024/01/09 00:24:23;;;;;;;13.25;5.35;;;;;;;-148.68;100.00;62903.81;5099469;28;20062;-89
2024/01/09 00:27:47;;;;;;;11.02;4.97;;;;;;;-148.68;100.00;62903.81;5115731;28;20026;-89
2024/01/09 00:31:12;;;;;;;10.75;5.47;;;;;;;-148.68;100.00;62903.81;5116175;28;20088;-89
2024/01/09 00:34:36;;;;;;;14.05;4.60;;;;;;;-148.68;100.00;62903.81;5116371;28;20429;-90
2024/01/09 00:38:00;;;;;;;11.02;4.53;;;;;;;-148.68;100.00;62903.81;5115700;28;20034;-89
2024/01/09 00:41:24;;;;;;;7.47;4.00;;;;;;;-148.68;100.00;62903.81;5099330;28;20390;-89
2024/01/09 00:44:48;;;;;;;10.43;4.72;;;;;;;-148.68;100.00;62903.81;5116170;28;20336;-90
2024/01/09 00:48:12;;;;;;;12.63;4.47;;;;;;;-148.68;100.00;62903.81;5098823;28;20463;-90
2024/01/09 00:51:36;;;;;;;12.82;5.43;;;;;;;-148.68;100.00;62903.81;5117175;28;20020;-90
2024/01/09 00:55:00;;;;;;;12.50;5.00;;;;;;;-148.68;100.00;62903.81;5116939;28;20072;-90
2024/01/09 00:58:24;;;;;;;12.02;5.32;;;;;;;-148.68;100.00;62903.81;5116135;28;20036;-90
2024/01/09 01:01:49;;;;;;;15.40;6.25;;;;;;;-148.68;100.00;62903.81;5115758;28;20027;-89
2024/01/09 01:05:14;;;;;;;11.55;5.93;;;;;;;-148.68;100.00;62903.81;5116359;28;20035;-90
2024/01/09 01:08:38;;;;;;;13.55;6.10;;;;;;;-148.68;100.00;62903.81;5115391;28;20027;-89
2024/01/09 01:12:02;;;;;;;14.65;6.35;;;;;;;-148.68;100.00;62903.81;5115778;28;20100;-89
2024/01/09 01:15:34;;;;;;;;;;;;;;;-148.68;100.00;62903.81;5120482;27;20023;-89
2024/01/09 01:18:58;;;;;;;15.75;5.65;;;;;;;-148.68;100.00;62903.81;5136422;28;19915;-89
2024/01/09 01:22:22;;;;;;;19.88;5.53;;;;;;;-148.68;100.00;62903.81;5119378;28;20038;-90
2024/01/09 01:25:46;;;;;;;15.00;5.65;;;;;;;-148.68;100.00;62903.81;5118735;28;20031;-91
2024/01/09 01:29:10;;;;;;;15.40;6.05;;;;;;;-148.68;100.00;62903.81;5135803;28;20031;-89
2024/01/09 01:32:34;;;;;;;14.30;6.07;;;;;;;-148.68;100.00;62903.81;5118854;28;20122;-90
2024/01/09 01:35:58;;;;;;;14.38;6.03;;;;;;;-148.68;100.00;62903.81;5120183;28;20426;-89
2024/01/09 01:39:22;;;;;;;12.02;5.78;;;;;;;-148.68;100.00;62903.81;5128789;27;20043;-90
2024/01/09 01:42:46;;;;;;;18.40;5.20;;;;;;;-148.68;100.00;62903.81;5139500;27;20470;-90
2024/01/09 01:46:14;;;;;;;15.38;6.57;;;;;;;-148.68;100.00;62903.81;5139375;27;20019;-89
2024/01/09 01:49:39;;;;;;;17.08;5.22;;;;;;;-148.68;100.00;62903.81;5122075;27;20125;-90
2024/01/09 01:53:03;;;;;;;11.77;5.30;;;;;;;-148.68;100.00;62903.81;5139230;27;20031;-90
2024/01/09 01:56:28;;;;;;;13.75;5.03;;;;;;;-148.68;100.00;62903.81;5118656;28;20055;-90
2024/01/09 01:59:53;;;;;;;10.77;5.50;;;;;;;-148.68;100.00;62903.81;5118601;28;20019;-90
2024/01/09 02:03:17;;;;;;;15.63;5.28;;;;;;;-148.68;100.00;62903.81;5112214;28;20455;-89
2024/01/09 02:06:41;;;;;;;12.27;5.10;;;;;;;-148.68;100.00;62903.81;5118663;28;20474;-89
2024/01/09 02:10:05;;;;;;;13.57;4.70;;;;;;;-148.68;100.00;62903.81;5101775;28;20031;-89
2024/01/09 02:13:30;;;;;;;12.32;5.40;;;;;;;-148.68;100.00;62903.81;5118491;28;20027;-90
2024/01/09 02:16:54;;;;;;;12.70;5.15;;;;;;;-148.68;100.00;62903.81;5151895;27;20042;-89
2024/01/09 02:20:20;;;;;;;8.88;4.85;;;;;;;-148.68;100.00;62903.81;5142710;27;20019;-89
2024/01/09 02:23:44;;;;;;;10.60;5.10;;;;;;;-148.68;100.00;62903.81;5142558;27;20023;-88
2024/01/09 02:27:15;;;;;;;14.85;5.43;;;;;;;-148.68;100.00;62903.81;5150461;27;20038;-89
2024/01/09 02:30:45;;;;;;;14.38;5.65;;;;;;;-148.68;100.00;62903.81;5119022;28;20038;-89
2024/01/09 02:34:10;;;;;;;14.52;5.90;;;;;;;-148.68;100.00;62903.81;5101206;28;20118;-89
2024/01/09 02:37:34;;;;;;;14.70;5.25;;;;;;;-148.68;100.00;62903.81;5123701;27;20086;-90
2024/01/09 02:40:58;;;;;;;11.52;5.95;;;;;;;-148.68;100.00;62903.81;5128005;27;20058;-90
2024/01/09 02:44:22;;;;;;;11.77;5.93;;;;;;;-148.68;100.00;62903.81;5124356;27;20023;-90
2024/01/09 02:47:49;;;;;;;12.82;5.97;;;;;;;-148.68;100.00;62903.81;5127799;27;20030;-90
2024/01/09 02:51:13;;;;;;;21.27;6.25;;;;;;;-148.68;100.00;62903.81;5130360;27;20030;-89
2024/01/09 02:54:37;;;;;;;14.65;6.47;;;;;;;-148.68;100.00;62903.81;5148401;27;20057;-89
2024/01/09 02:58:01;;;;;;;18.45;6.15;;;;;;;-148.68;100.00;62903.81;5158924;27;20033;-89
2024/01/09 03:01:26;;;;;;;18.15;6.78;;;;;;;-148.68;100.00;62903.81;5119842;27;20047;-89
2024/01/09 03:04:50;;;;;;;14.98;6.07;;;;;;;-148.68;100.00;62903.81;5117530;28;20102;-90
2024/01/09 03:08:14;;;;;;;15.60;5.90;;;;;;;-148.68;100.00;62903.81;5117156;28;20039;-89
2024/01/09 03:11:38;;;;;;;16.70;6.18;;;;;;;-148.68;100.00;62903.81;5118461;28;20038;-89
2024/01/09 03:15:02;;;;;;;16.33;6.00;;;;;;;-148.68;100.00;62903.81;5100625;28;20035;-90
2024/01/09 03:18:26;;;;;;;16.27;4.97;;;;;;;-148.68;100.00;62903.81;5145214;27;20079;-89
2024/01/09 03:21:50;;;;;;;16.65;6.35;;;;;;;-148.68;100.00;62903.81;5158585;27;20030;-90
2024/01/09 03:25:13;;;;;;;14.93;5.78;;;;;;;-148.68;100.00;62903.81;5141430;27;20029;-88
2024/01/09 03:28:38;;;;;;;13.65;5.93;;;;;;;-148.68;100.00;62903.81;5119619;27;20031;-89
2024/01/09 03:32:03;;;;;;;24.08;6.05;;;;;;;-148.68;100.00;62903.81;5120879;27;20039;-89
2024/01/09 03:35:26;;;;;;;16.33;6.22;;;;;;;-148.68;100.00;62903.81;5137391;27;20027;-89
2024/01/09 03:38:52;;;;;;;10.38;5.13;;;;;;;-148.68;100.00;62903.81;5158185;27;20323;-90
2024/01/09 03:42:16;;;;;;;12.63;5.57;;;;;;;-148.68;100.00;62903.81;5157863;27;20018;-89
2024/01/09 03:45:40;;;;;;;11.90;5.03;;;;;;;-148.68;100.00;62903.81;5116903;28;20031;-89
2024/01/09 03:49:04;;;;;;;13.50;5.00;;;;;;;-148.68;100.00;62903.81;5116529;28;20347;-90
2024/01/09 03:52:28;;;;;;;20.13;7.32;;;;;;;-148.68;100.00;62903.81;5099529;28;20080;-89
2024/01/09 03:55:52;;;;;;;14.30;6.50;;;;;;;-148.68;100.00;62903.81;5136571;27;20039;-89
2024/01/09 03:59:17;;;;;;;16.90;5.88;;;;;;;-148.68;100.00;62903.81;5120951;27;20075;-90
2024/01/09 04:02:41;;;;;;;16.20;6.47;;;;;;;-148.68;100.00;62903.81;5131937;27;20041;-89
2024/01/09 04:06:05;;;;;;;18.77;7.70;;;;;;;-148.68;100.00;62903.81;5120136;27;20340;-89
2024/01/09 04:09:37;;;;;;;18.77;7.32;;;;;;;-148.68;100.00;62903.81;5109007;28;20127;-89
2024/01/09 04:13:02;;;;;;;16.23;6.82;;;;;;;-148.68;100.00;62903.81;5119943;27;20048;-90
2024/01/09 04:16:26;;;;;;;20.17;6.43;;;;;;;-148.68;100.00;62903.81;5136602;27;20019;-89
2024/01/09 04:19:50;;;;;;;17.48;8.23;;;;;;;-148.68;100.00;62903.81;5123111;27;20059;-90
2024/01/09 04:23:14;;;;;;;13.50;5.93;;;;;;;-148.68;100.00;62903.81;5140511;27;20133;-90
2024/01/09 04:26:38;;;;;;;14.45;6.35;;;;;;;-148.68;100.00;62903.81;5140199;27;20023;-91
2024/01/09 04:30:02;;;;;;;19.42;5.57;;;;;;;-148.68;100.00;62903.81;5157002;27;20385;-89
2024/01/09 04:33:26;;;;;;;10.70;5.32;;;;;;;-148.68;100.00;62903.81;5140361;27;20027;-90
2024/01/09 04:36:53;;;;;;;21.35;6.68;;;;;;;-148.68;100.00;62903.81;5157453;27;20141;-90
2024/01/09 04:40:17;;;;;;;20.90;6.55;;;;;;;-148.68;100.00;62903.81;5115898;28;20028;-89
2024/01/09 04:43:41;;;;;;;14.48;7.15;;;;;;;-148.68;100.00;62903.81;5115993;28;20085;-89
2024/01/09 04:47:06;;;;;;;17.23;6.75;;;;;;;-148.68;100.00;62903.81;5116692;28;20023;-90
2024/01/09 04:50:30;;;;;;;14.02;6.57;;;;;;;-148.68;100.00;62903.81;5119116;28;20039;-91
2024/01/09 04:53:54;;;;;;;15.82;7.47;;;;;;;-148.68;100.00;62903.81;5136659;28;20027;-90
2024/01/09 04:57:18;;;;;;;16.05;7.07;;;;;;;-148.68;100.00;62903.81;5138606;27;20031;-90
2024/01/09 05:00:42;;;;;;;21.90;7.30;;;;;;;-148.68;100.00;62903.81;5152858;27;20324;-91
2024/01/09 05:04:06;;;;;;;21.20;7.38;;;;;;;-148.68;100.00;62903.81;5133651;27;20034;-91
2024/01/09 05:07:30;;;;;;;13.02;6.45;;;;;;;-148.68;100.00;62903.81;5126126;27;20363;-90
2024/01/09 05:10:54;;;;;;;21.90;8.00;;;;;;;-148.68;100.00;62903.81;5119711;28;20522;-91
2024/01/09 05:14:18;;;;;;;22.88;8.57;;;;;;;-148.68;100.00;62903.81;5116252;27;20027;-92
2024/01/09 05:17:42;;;;;;;27.27;10.57;;;;;;;-148.68;100.00;62903.81;5131545;27;20084;-90
2024/01/09 05:21:06;;;;;;;19.38;7.00;;;;;;;-148.68;100.00;62903.81;5139823;27;20027;-88
2024/01/09 05:24:30;;;;;;;17.70;7.95;;;;;;;-148.68;100.00;62903.81;5123042;27;20079;-89
2024/01/09 05:27:54;;;;;;;22.38;9.52;;;;;;;-148.68;100.00;62903.81;5139927;27;20115;-88
2024/01/09 05:31:18;;;;;;;24.98;9.23;;;;;;;-148.68;100.00;62903.81;5122982;27;20142;-88
2024/01/09 05:34:42;;;;;;;19.48;7.53;;;;;;;-148.68;100.00;62903.81;5139681;27;20034;-87
2024/01/09 05:38:06;;;;;;;17.05;6.97;;;;;;;-148.68;100.00;62903.81;5105895;27;20031;-92
2024/01/09 05:41:33;;;;;;;17.45;7.15;;;;;;;-148.68;100.00;62903.81;5119766;28;20027;-91
2024/01/09 05:44:57;;;;;;;19.65;7.00;;;;;;;-148.68;100.00;62903.81;5119250;28;20076;-92
2024/01/09 05:48:21;;;;;;;14.27;7.00;;;;;;;-148.68;100.00;62903.81;5118915;28;20035;-91
2024/01/09 05:51:45;;;;;;;18.05;7.25;;;;;;;-148.68;100.00;62903.81;5118818;28;20114;-90
2024/01/09 05:55:09;;;;;;;21.30;7.07;;;;;;;-148.68;100.00;62903.81;5118676;28;20027;-91
2024/01/09 05:58:33;;;;;;;15.30;6.53;;;;;;;-148.68;100.00;62903.81;5118660;28;20034;-90
2024/01/09 06:01:57;;;;;;;24.70;7.40;;;;;;;-148.68;100.00;62903.81;5101985;28;20031;-91
2024/01/09 06:05:21;;;;;;;27.35;8.15;;;;;;;-148.68;100.00;62903.81;5118706;28;20042;-89
2024/01/09 06:08:46;;;;;;;15.80;7.50;;;;;;;-148.68;100.00;62903.81;5121450;27;20038;-89
2024/01/09 06:12:10;;;;;;;15.27;7.55;;;;;;;-148.68;100.00;62903.81;5139407;27;20037;-89
2024/01/09 06:15:34;;;;;;;20.02;8.73;;;;;;;-148.68;100.00;62903.81;5118781;28;20122;-88
2024/01/09 06:18:58;;;;;;;19.35;8.13;;;;;;;-148.68;100.00;62903.81;5117182;28;20344;-89
2024/01/09 06:22:21;;;;;;;26.05;8.60;;;;;;;-148.68;100.00;62903.81;5118590;28;20448;-89
2024/01/09 06:25:45;;;;;;;17.08;8.15;;;;;;;-148.68;100.00;62903.81;5118326;28;20033;-89
2024/01/09 06:29:09;;;;;;;21.63;8.95;;;;;;;-148.68;100.00;62903.81;5132978;27;20026;-88
2024/01/09 06:32:33;;;;;;;30.02;10.15;;;;;;;-148.68;100.00;62903.81;5122828;27;20035;-88
2024/01/09 06:35:58;;;;;;;21.33;8.57;;;;;;;-148.68;100.00;62903.81;5111606;28;20027;-89
2024/01/09 06:39:22;;;;;;;25.10;9.98;;;;;;;-148.68;100.00;62903.81;5117902;28;20050;-89
2024/01/09 06:42:46;;;;;;;;;;;;;;;-148.68;100.00;62903.81;5118444;28;20328;-89
2024/01/09 06:46:10;;;;;;;21.77;9.23;;;;;;;-148.68;100.00;62903.81;5118000;28;19908;-89
2024/01/09 06:49:34;;;;;;;22.20;9.35;;;;;;;-148.68;100.00;62903.81;5117589;28;20031;-89
2024/01/09 06:52:58;;;;;;;23.63;9.40;;;;;;;-148.68;100.00;62903.81;5117864;28;20440;-89
2024/01/09 06:56:22;;;;;;;24.42;8.32;;;;;;;-148.68;100.00;62903.81;5130660;27;20068;-89
2024/01/09 06:59:46;;;;;;;21.58;8.60;;;;;;;-148.68;100.00;62903.81;5138150;27;20072;-89
2024/01/09 07:03:10;;;;;;;21.23;9.35;;;;;;;-148.68;100.00;62903.81;5138220;27;20015;-89
2024/01/09 07:06:34;;;;;;;22.45;9.25;;;;;;;-148.68;100.00;62903.81;5121088;27;20023;-88
2024/01/09 07:09:58;;;;;;;23.15;10.30;;;;;;;-148.68;100.00;62903.81;5138113;27;20019;-90
2024/01/09 07:13:23;;;;;;;25.65;9.52;;;;;;;-148.68;100.00;62903.81;5120189;27;20027;-89
2024/01/09 07:16:47;;;;;;;24.48;10.07;;;;;;;-148.68;100.00;62903.81;5137835;27;20327;-89
2024/01/09 07:20:11;;;;;;;28.10;10.55;;;;;;;-148.68;100.00;62903.81;5120926;27;20031;-89
2024/01/09 07:23:35;;;;;;;24.45;10.57;;;;;;;-148.68;100.00;62903.81;5120823;27;20048;-89
2024/01/09 07:27:03;;;;;;;22.77;9.65;;;;;;;-148.68;100.00;62903.81;5137627;27;20023;-89
2024/01/09 07:30:27;;;;;;;29.08;11.20;;;;;;;-148.68;100.00;62903.81;5120440;27;20018;-90
2024/01/09 07:33:51;;;;;;;24.30;10.07;;;;;;;-148.68;100.00;62903.81;5137342;27;20027;-90
2024/01/09 07:37:31;;;;;;;24.30;9.48;;;;;;;-148.68;100.00;62903.81;5137204;27;20034;-89
2024/01/09 07:40:56;;;;;;;24.92;9.90;;;;;;;-148.68;100.00;62903.81;5120209;27;20029;-89
2024/01/09 07:44:20;;;;;;;25.77;10.40;;;;;;;-148.68;100.00;62903.81;5137393;27;20344;-89
2024/01/09 07:47:44;;;;;;;;;;;;;;;-148.68;100.00;62903.81;5120806;27;20051;-90
2024/01/09 07:51:08;;;;;;;19.52;8.75;;;;;;;-148.68;100.00;62903.81;5120039;27;19911;-90
2024/01/09 07:54:32;;;;;;;26.48;9.38;;;;;;;-148.68;100.00;62903.81;5136866;27;20107;-89
2024/01/09 07:57:58;;;;;;;19.08;8.75;;;;;;;-148.68;100.00;62903.81;5120434;27;20435;-89
2024/01/09 08:01:23;;;;;;;27.63;9.48;;;;;;;-148.68;100.00;62903.81;5120483;27;20044;-89
2024/01/09 08:04:47;;;;;;;22.13;8.32;;;;;;;-148.68;100.00;62903.81;5137400;27;20060;-89
2024/01/09 08:08:11;;;;;;;19.27;9.07;;;;;;;-148.68;100.00;62903.81;5136946;27;20102;-89
2024/01/09 08:11:35;;;;;;;22.65;8.23;;;;;;;-148.68;100.00;62903.81;5136914;27;20019;-89
2024/01/09 08:14:59;;;;;;;28.70;7.80;;;;;;;-148.68;100.00;62903.81;5137124;27;20016;-89
2024/01/09 08:18:23;;;;;;;23.73;7.60;;;;;;;-148.68;100.00;62903.81;5119845;27;20335;-89
2024/01/09 08:21:47;;;;;;;24.23;7.05;;;;;;;-148.68;100.00;62903.81;5136922;28;20019;-90
2024/01/09 08:25:11;;;;;;;22.77;6.88;;;;;;;-148.68;100.00;62903.81;5119629;28;20035;-90
2024/01/09 08:28:35;;;;;;;15.30;7.15;;;;;;;-148.68;100.00;62903.81;5136431;28;20023;-89
2024/01/09 08:31:59;;;;;;;20.02;7.68;;;;;;;-148.68;100.00;62903.81;5119472;28;20023;-89
2024/01/09 08:35:23;;;;;;;19.58;6.80;;;;;;;-148.68;100.00;62903.81;5119780;28;20063;-89
2024/01/09 08:38:47;;;;;;;24.00;8.30;;;;;;;-148.68;100.00;62903.81;5136590;28;20023;-90
2024/01/09 08:42:11;;;;;;;22.48;6.75;;;;;;;-148.68;100.00;62903.81;5137594;27;20019;-89
2024/01/09 08:45:35;;;;;;;13.95;6.25;;;;;;;-148.68;100.00;62903.81;5140875;27;20029;-90
2024/01/09 08:49:00;;;;;;;16.60;6.60;;;;;;;-148.68;100.00;62903.81;5140461;27;20107;-88
2024/01/09 08:52:25;;;;;;;21.38;6.93;;;;;;;-148.68;100.00;62903.81;5123455;27;20023;-88
2024/01/09 08:55:52;;;;;;;14.10;6.32;;;;;;;-148.68;100.00;62903.81;5140566;27;20039;-88
2024/01/09 08:59:15;;;;;;;20.27;6.30;;;;;;;-148.68;100.00;62903.81;5140760;27;20101;-88
2024/01/09 09:02:39;;;;;;;17.65;6.63;;;;;;;-148.68;100.00;62903.81;5140307;27;20102;-88
2024/01/09 09:06:04;;;;;;;18.35;6.45;;;;;;;-148.68;100.00;62903.81;5140411;27;20064;-88
2024/01/09 09:09:29;;;;;;;14.85;6.03;;;;;;;-148.68;100.00;62903.81;5123402;27;20019;-88
2024/01/09 09:12:53;;;;;;;22.27;6.93;;;;;;;-148.68;100.00;62903.81;5140290;27;20110;-89
2024/01/09 09:16:18;;;;;;;18.85;7.10;;;;;;;-148.68;100.00;62903.81;5140515;27;20019;-89
2024/01/09 09:19:42;;;;;;;21.60;7.38;;;;;;;-148.68;100.00;62903.81;5140089;27;20019;-89
2024/01/09 09:23:06;;;;;;;22.80;7.32;;;;;;;-148.68;100.00;62903.81;5139915;27;20019;-88
2024/01/09 09:26:32;;;;;;;20.40;7.00;;;;;;;-148.68;100.00;62903.81;5140316;27;20111;-89
2024/01/09 09:29:56;;;;;;;19.83;8.60;;;;;;;-148.68;100.00;62903.81;5139904;27;20019;-89
2024/01/09 09:33:20;;;;;;;18.10;7.38;;;;;;;-148.68;100.00;62903.81;5139890;27;20031;-88
2024/01/09 09:36:47;;;;;;;17.00;6.53;;;;;;;-148.68;100.00;62903.81;5139915;27;20023;-88
2024/01/09 09:40:12;;;;;;;24.63;6.35;;;;;;;-148.68;100.00;62903.81;5139869;27;20026;-88
2024/01/09 09:43:37;;;;;;;22.63;6.30;;;;;;;-148.68;100.00;62903.81;5139662;27;20053;-88
2024/01/09 09:47:01;;;;;;;25.83;7.10;;;;;;;-148.68;100.00;62903.81;5139425;27;20027;-89
2024/01/09 09:50:25;;;;;;;17.17;6.55;;;;;;;-148.68;100.00;62903.81;5139621;27;20160;-88
2024/01/09 09:53:49;;;;;;;16.48;5.80;;;;;;;-148.68;100.00;62903.81;5122463;27;20030;-89
2024/01/09 09:57:19;;;;;;;19.00;5.90;;;;;;;-148.68;100.00;62903.81;5122582;27;20439;-88
2024/01/09 10:00:44;;;;;;;18.77;5.55;;;;;;;-148.68;100.00;62903.81;5139326;27;20072;-89
2024/01/09 10:04:18;;;;;;;15.95;5.97;;;;;;;-148.68;100.00;62903.81;5139306;27;20015;-88
2024/01/09 10:07:44;;;;;;;16.13;5.47;;;;;;;-148.68;100.00;62903.81;5140088;27;20519;-89
2024/01/09 10:11:10;;;;;;;15.70;5.80;;;;;;;-148.68;100.00;62903.81;5122242;27;20313;-88
2024/01/09 10:14:34;;;;;;;18.13;5.25;;;;;;;-148.68;100.00;62903.81;5122115;27;20487;-88
2024/01/09 10:17:59;;;;;;;13.85;5.90;;;;;;;-148.68;100.00;62903.81;5139009;27;20418;-89
2024/01/09 10:21:26;;;;;;;11.38;5.53;;;;;;;-148.68;100.00;62903.81;5122093;27;20454;-88
2024/01/09 10:24:52;;;;;;;12.40;5.03;;;;;;;-148.68;100.00;62903.81;5138954;27;20019;-88
2024/01/09 10:28:17;;;;;;;18.17;5.50;;;;;;;-148.68;100.00;62903.81;5138772;27;20084;-88
2024/01/09 10:31:42;;;;;;;18.92;6.40;;;;;;;-148.68;100.00;62903.81;5121929;27;20075;-88
2024/01/09 10:35:07;;;;;;;12.52;5.03;;;;;;;-148.68;100.00;62903.81;5121836;27;20031;-89
2024/01/09 10:38:32;;;;;;;18.15;6.00;;;;;;;-148.68;100.00;62903.81;5138531;27;20029;-88
2024/01/09 10:41:57;;;;;;;13.10;5.85;;;;;;;-148.68;100.00;62903.81;5138542;27;20414;-89
2024/01/09 10:45:23;;;;;;;16.33;6.43;;;;;;;-148.68;100.00;62903.81;5138489;27;20030;-89
2024/01/09 10:48:47;;;;;;;20.17;6.22;;;;;;;-148.68;100.00;62903.81;5138245;27;20125;-88
2024/01/09 10:52:15;;;;;;;;;;;;;;;-148.68;100.00;62903.81;5121927;27;20035;-88
2024/01/09 10:55:43;;;;;;;15.30;5.93;;;;;;;-148.68;100.00;62903.81;5138376;27;20332;-89
2024/01/09 10:59:07;;;;;;;20.27;6.70;;;;;;;-148.68;100.00;62903.81;5139321;27;20034;-89
2024/01/09 11:02:35;;;;;;;12.43;5.30;;;;;;;-148.68;100.00;62903.81;5138419;27;20390;-89
2024/01/09 11:06:01;;;;;;;16.25;5.88;;;;;;;-148.68;100.00;62903.81;5121418;27;20434;-89
2024/01/09 11:09:26;;;;;;;18.45;6.35;;;;;;;-148.68;100.00;62903.81;5138004;27;20052;-88
2024/01/09 11:12:51;;;;;;;15.90;5.70;;;;;;;-148.68;100.00;62903.81;5120931;27;20080;-88
2024/01/09 11:16:24;;;;;;;19.65;6.35;;;;;;;-148.68;100.00;62903.81;5139175;27;20057;-88
2024/01/09 11:19:49;;;;;;;14.55;7.32;;;;;;;-148.68;100.00;62903.81;5120486;27;20031;-89
2024/01/09 11:23:14;;;;;;;16.27;6.43;;;;;;;-148.68;100.00;62903.81;5137805;27;20050;-89
2024/01/09 11:26:39;;;;;;;21.15;5.95;;;;;;;-148.68;100.00;62903.81;5137708;27;20027;-89
2024/01/09 11:30:05;;;;;;;16.92;5.68;;;;;;;-148.68;100.00;62903.81;5120607;27;20035;-88
2024/01/09 11:33:35;;;;;;;14.52;5.65;;;;;;;-148.68;100.00;62903.81;5120890;27;20027;-89
2024/01/09 11:37:12;;;;;;;21.27;6.07;;;;;;;-148.68;100.00;62903.81;5137649;27;20034;-88
2024/01/09 11:40:37;;;;;;;13.60;5.18;;;;;;;-148.68;100.00;62903.81;5137515;27;20027;-88
2024/01/09 11:44:02;;;;;;;14.23;5.47;;;;;;;-148.68;100.00;62903.81;5137376;27;20015;-87
2024/01/09 11:47:27;;;;;;;16.48;6.00;;;;;;;-148.68;100.00;62903.81;5120122;27;20118;-88
2024/01/09 11:50:53;;;;;;;17.00;5.55;;;;;;;-148.68;100.00;62903.81;5137379;27;20542;-88
2024/01/09 11:54:17;;;;;;;14.75;5.38;;;;;;;-148.68;100.00;62903.81;5137156;27;20368;-88
2024/01/09 11:57:41;;;;;;;17.05;6.10;;;;;;;-148.68;100.00;62903.81;5137141;27;20022;-88
2024/01/09 12:01:06;;;;;;;18.05;6.13;;;;;;;-148.68;100.00;62903.81;5137469;27;20072;-88
2024/01/09 12:04:30;;;;;;;16.27;6.80;;;;;;;-148.68;100.00;62903.81;5137042;27;20019;-88
2024/01/09 12:07:57;;;;;;;16.48;6.05;;;;;;;-148.68;100.00;62903.81;5120278;27;20027;-88
2024/01/09 12:11:21;;;;;;;11.10;5.13;;;;;;;-148.68;100.00;62903.81;5137013;27;20380;-88
2024/01/09 12:14:50;;;;;;;15.07;5.57;;;;;;;-148.68;100.00;62903.81;5136845;27;20035;-88
2024/01/09 12:18:21;;;;;;;16.05;5.43;;;;;;;-148.68;100.00;62903.81;5136266;27;20023;-88
2024/01/09 12:21:46;;;;;;;14.73;5.85;;;;;;;-148.68;100.00;62903.81;5136848;27;20030;-88
2024/01/09 12:25:10;;;;;;;13.32;5.43;;;;;;;-148.68;100.00;62903.81;5120221;28;20023;-89
2024/01/09 12:28:34;;;;;;;14.02;5.75;;;;;;;-148.68;100.00;62903.81;5137008;28;20437;-88
2024/01/09 12:31:58;;;;;;;15.70;5.50;;;;;;;-148.68;100.00;62903.81;5119762;28;20030;-88
2024/01/09 12:35:22;;;;;;;22.60;6.45;;;;;;;-148.68;100.00;62903.81;5137016;28;20031;-88
2024/01/09 12:38:46;;;;;;;12.20;5.70;;;;;;;-148.68;100.00;62903.81;5136744;28;20034;-88
2024/01/09 12:42:12;;;;;;;13.10;4.93;;;;;;;-148.68;100.00;62903.81;5136641;28;20106;-88
2024/01/09 12:45:40;;;;;;;23.95;4.13;;;;;;;-148.68;100.00;62903.81;5119392;28;20027;-88
2024/01/09 12:49:05;;;;;;;10.45;4.32;;;;;;;-148.68;100.00;62903.81;5136347;28;20125;-88
2024/01/09 12:52:29;;;;;;;11.40;4.40;;;;;;;-148.68;100.00;62903.81;5119295;28;20030;-88
2024/01/09 12:56:06;;;;;;;10.18;5.18;;;;;;;-148.68;100.00;62903.81;5136317;28;20329;-88
2024/01/09 12:59:31;;;;;;;14.15;6.65;;;;;;;-148.68;100.00;62903.81;5136087;28;20027;-88
2024/01/09 13:02:55;;;;;;;16.38;6.45;;;;;;;-148.68;100.00;62903.81;5136532;28;20030;-88
2024/01/09 13:06:20;;;;;;;20.48;7.25;;;;;;;-148.68;100.00;62903.81;5119569;28;20038;-87
2024/01/09 13:09:44;;;;;;;16.00;7.43;;;;;;;-148.68;100.00;62903.81;5119452;28;20023;-87
2024/01/09 13:13:08;;;;;;;18.17;7.65;;;;;;;-148.68;100.00;62903.81;5127736;28;20040;-88
2024/01/09 13:16:32;;;;;;;18.95;7.60;;;;;;;-148.68;100.00;62903.81;5119155;28;20039;-88
2024/01/09 13:19:56;;;;;;;13.07;5.88;;;;;;;-148.68;100.00;62903.81;5137442;27;20023;-88
2024/01/09 13:23:20;;;;;;;11.75;6.35;;;;;;;-148.68;100.00;62903.81;5136355;28;20113;-89
2024/01/09 13:26:45;;;;;;;14.45;6.57;;;;;;;-148.68;100.00;62903.81;5134412;28;20080;-88
2024/01/09 13:30:09;;;;;;;10.85;5.03;;;;;;;-148.68;100.00;62903.81;5122465;27;20038;-88
2024/01/09 13:33:33;;;;;;;13.73;5.63;;;;;;;-148.68;100.00;62903.81;5122912;27;20030;-87
2024/01/09 13:36:57;;;;;;;16.15;7.43;;;;;;;-148.68;100.00;62903.81;5139886;27;20027;-87
2024/01/09 13:40:21;;;;;;;18.10;7.10;;;;;;;-148.68;100.00;62903.81;5121500;27;20027;-87
2024/01/09 13:43:48;;;;;;;15.65;7.20;;;;;;;-148.68;100.00;62903.81;5139819;27;20030;-88
2024/01/09 13:47:12;;;;;;;19.95;7.78;;;;;;;-148.68;100.00;62903.81;5122765;27;20096;-87
2024/01/09 13:50:36;;;;;;;18.85;8.38;;;;;;;-148.68;100.00;62903.81;5118990;28;20038;-88
2024/01/09 13:53:59;;;;;;;18.90;8.80;;;;;;;-148.68;100.00;62903.81;5130491;27;20035;-88
2024/01/09 13:57:23;;;;;;;27.13;8.07;;;;;;;-148.68;100.00;62903.81;5122613;27;20031;-87
2024/01/09 14:00:47;;;;;;;20.92;7.85;;;;;;;-148.68;100.00;62903.81;5122426;27;20332;-87
2024/01/09 14:04:15;;;;;;;22.50;7.95;;;;;;;-148.68;100.00;62903.81;5139380;27;20475;-88
2024/01/09 14:07:41;;;;;;;17.75;7.63;;;;;;;-148.68;100.00;62903.81;5139309;27;20019;-87
2024/01/09 14:11:05;;;;;;;22.50;8.48;;;;;;;-148.68;100.00;62903.81;5132835;27;20348;-88
2024/01/09 14:14:29;;;;;;;19.70;8.00;;;;;;;-148.68;100.00;62903.81;5139005;27;20050;-88
2024/01/09 14:17:53;;;;;;;17.25;8.02;;;;;;;-148.68;100.00;62903.81;5137461;27;20382;-87
2024/01/09 14:21:17;;;;;;;17.27;8.13;;;;;;;-148.68;100.00;62903.81;5139024;27;20026;-87
2024/01/09 14:24:41;;;;;;;26.48;8.40;;;;;;;-148.68;100.00;62903.81;5139093;27;20073;-88
2024/01/09 14:28:05;;;;;;;30.00;9.10;;;;;;;-148.68;100.00;62903.81;5138665;27;20076;-87
2024/01/09 14:31:29;;;;;;;19.67;8.55;;;;;;;-148.68;100.00;62903.81;5138712;27;20456;-87
2024/01/09 14:34:54;;;;;;;19.95;7.47;;;;;;;-148.68;100.00;62903.81;5138682;27;20027;-87
2024/01/09 14:38:18;;;;;;;27.83;9.27;;;;;;;-148.68;100.00;62903.81;5138461;27;20027;-87
2024/01/09 14:41:42;;;;;;;21.15;8.43;;;;;;;-148.68;100.00;62903.81;5120816;27;20428;-87
2024/01/09 14:45:08;;;;;;;;;;;;;;;-148.68;100.00;62903.81;5122111;27;20054;-87
2024/01/09 14:48:33;;;;;;;25.17;8.65;;;;;;;-148.68;100.00;62903.81;5121482;27;19911;-87
2024/01/09 14:51:59;;;;;;;20.80;9.50;;;;;;;-148.68;100.00;62903.81;5118302;28;20347;-88
2024/01/09 14:55:24;;;;;;;24.50;10.27;;;;;;;-148.68;100.00;62903.81;5131594;27;20035;-87
2024/01/09 14:58:48;;;;;;;15.85;9.05;;;;;;;-148.68;100.00;62903.81;5121315;27;20431;-87
2024/01/09 15:02:15;;;;;;;25.40;9.88;;;;;;;-148.68;100.00;62903.81;5121160;27;20023;-87
2024/01/09 15:05:40;;;;;;;18.75;9.60;;;;;;;-148.68;100.00;62903.81;5121798;27;20026;-88
2024/01/09 15:09:04;;;;;;;26.40;10.55;;;;;;;-148.68;100.00;62903.81;5138026;27;20452;-87
2024/01/09 15:12:28;;;;;;;20.88;8.93;;;;;;;-148.68;100.00;62903.81;5137982;27;20413;-87
2024/01/09 15:15:52;;;;;;;29.30;10.18;;;;;;;-148.68;100.00;62903.81;5137886;27;20027;-87
2024/01/09 15:19:16;;;;;;;20.08;9.55;;;;;;;-148.68;100.00;62903.81;5137810;27;20160;-87